Time;durP1;ratioP1;P1;durP2;ratioP2;P2;SDS_P1;SDS_P2;PMS_P1;PMS_P2;Temp;Humidity;BMP_temperature;BMP_pressure;BME280_temperature;BME280_humidity;BME280_pressure;Samples;Min_cycle;Max_cycle;Signal;HPM_P1;HPM_P2
2023/06/24 00:00:06;;;;;;;4.80;2.83;;;;;;;20.56;57.11;100391.16;5142617;27;20206;-69
2023/06/24 00:02:37;;;;;;;3.92;3.53;;;;;;;20.54;57.34;100395.59;5138952;27;20817;-67
2023/06/24 00:05:08;;;;;;;4.47;3.45;;;;;;;20.47;57.33;100388.91;5134107;27;20208;-69
2023/06/24 00:07:43;;;;;;;4.47;4.07;;;;;;;20.47;57.55;100388.91;5129718;27;20732;-69
2023/06/24 00:10:13;;;;;;;4.22;3.33;;;;;;;20.44;57.60;100391.72;5132406;27;20242;-69
2023/06/24 00:12:41;;;;;;;4.85;3.30;;;;;;;20.40;57.50;100379.66;5134205;27;20200;-67
2023/06/24 00:15:10;;;;;;;5.10;3.05;;;;;;;20.43;57.48;100382.13;5135664;27;20239;-67
2023/06/24 00:17:40;;;;;;;5.53;3.38;;;;;;;20.44;57.61;100376.00;5134816;27;20215;-67
2023/06/24 00:20:13;;;;;;;5.18;3.75;;;;;;;20.47;57.53;100388.91;5135705;27;20203;-68
2023/06/24 00:22:43;;;;;;;5.95;2.85;;;;;;;20.47;57.41;100391.53;5135404;27;20240;-68
2023/06/24 00:25:12;;;;;;;4.57;3.58;;;;;;;20.48;57.61;100391.50;5132461;27;20252;-68
2023/06/24 00:27:40;;;;;;;5.57;3.45;;;;;;;20.49;57.51;100397.56;5137582;27;20665;-69
2023/06/24 00:30:09;;;;;;;3.72;3.35;;;;;;;20.50;57.56;100397.50;5135293;27;20203;-69
2023/06/24 00:32:37;;;;;;;4.15;3.20;;;;;;;20.53;57.65;100398.31;5134400;27;20259;-68
2023/06/24 00:35:08;;;;;;;4.45;3.15;;;;;;;20.54;57.43;100395.59;5135571;27;20583;-67
2023/06/24 00:37:36;;;;;;;6.13;3.45;;;;;;;20.57;57.65;100405.09;5138374;27;20203;-68
2023/06/24 00:40:14;;;;;;;6.35;3.53;;;;;;;20.55;57.40;100404.34;5135394;27;20207;-68
2023/06/24 00:42:42;;;;;;;4.07;3.15;;;;;;;20.55;57.29;100406.94;5133581;27;20210;-68
2023/06/24 00:45:11;;;;;;;4.30;3.10;;;;;;;20.51;57.25;100411.47;5134607;27;20199;-68
2023/06/24 00:47:40;;;;;;;3.80;3.22;;;;;;;20.49;57.35;100414.16;5134295;27;20199;-67
2023/06/24 00:50:12;;;;;;;5.60;3.58;;;;;;;20.47;57.48;100418.59;5134693;27;20624;-69
2023/06/24 00:52:42;;;;;;;3.47;3.00;;;;;;;20.47;57.34;100428.19;5131404;27;20207;-68
2023/06/24 00:55:12;;;;;;;3.20;2.90;;;;;;;20.47;57.23;100420.34;5133331;27;20207;-67
2023/06/24 00:57:42;;;;;;;4.53;3.70;;;;;;;20.45;57.30;100417.81;5133754;27;20201;-68
2023/06/24 01:00:14;;;;;;;4.95;3.10;;;;;;;20.43;57.34;100431.88;5135036;27;20653;-69
2023/06/24 01:02:43;;;;;;;4.10;2.90;;;;;;;20.41;57.31;100431.09;5133866;27;20210;-68
2023/06/24 01:05:13;;;;;;;4.05;3.20;;;;;;;20.38;57.41;100429.47;5135436;27;20642;-67
2023/06/24 01:07:42;;;;;;;3.78;3.03;;;;;;;20.39;57.50;100444.25;5134364;27;20618;-68
2023/06/24 01:10:12;;;;;;;3.92;3.33;;;;;;;20.36;56.99;100441.78;5130640;27;20207;-67
2023/06/24 01:12:43;;;;;;;3.85;3.45;;;;;;;20.33;57.51;100435.84;5132459;27;20207;-68
2023/06/24 01:15:12;;;;;;;5.07;3.00;;;;;;;20.33;57.37;100439.31;5138229;27;20203;-67
2023/06/24 01:17:45;;;;;;;4.72;3.13;;;;;;;20.34;57.62;100445.41;5135379;27;20236;-67
2023/06/24 01:20:22;;;;;;;3.55;3.00;;;;;;;20.34;57.46;100451.47;5133089;27;20252;-68
2023/06/24 01:23:23;;;;;;;3.78;3.22;;;;;;;20.38;57.38;100452.19;5136921;27;20206;-66
2023/06/24 01:26:07;;;;;;;3.60;2.85;;;;;;;20.38;57.43;100444.34;5129242;27;20571;-67
2023/06/24 01:28:59;;;;;;;4.00;3.42;;;;;;;20.35;57.43;100447.94;5133104;27;20366;-67
2023/06/24 01:31:35;;;;;;;3.53;2.90;;;;;;;20.31;57.96;100446.38;5126765;27;20781;-68
2023/06/24 01:34:13;;;;;;;4.45;3.92;;;;;;;20.25;57.81;100444.91;5130976;27;20207;-67
2023/06/24 01:36:46;;;;;;;5.13;4.20;;;;;;;20.20;57.92;100454.72;5134541;27;20203;-68
2023/06/24 01:39:19;;;;;;;6.82;3.90;;;;;;;20.12;58.30;100448.97;5137882;27;20608;-68
2023/06/24 01:41:54;;;;;;;3.85;3.45;;;;;;;20.04;58.30;100448.47;5131490;27;20248;-68
2023/06/24 01:44:23;;;;;;;5.00;3.42;;;;;;;20.03;58.67;100446.78;5133313;27;20202;-67
2023/06/24 01:46:56;;;;;;;4.28;3.50;;;;;;;19.99;58.75;100446.06;5134765;27;20601;-67
2023/06/24 01:49:29;;;;;;;5.70;3.75;;;;;;;19.96;59.13;100446.19;5130202;27;20196;-67
2023/06/24 01:52:00;;;;;;;5.15;3.85;;;;;;;19.95;58.87;100444.47;5133859;27;20681;-67
2023/06/24 01:54:30;;;;;;;6.45;3.45;;;;;;;19.92;58.98;100444.63;5134828;27;20210;-66
2023/06/24 01:57:00;;;;;;;6.82;3.80;;;;;;;19.89;58.98;100449.16;5132543;27;20532;-69
2023/06/24 01:59:30;;;;;;;4.75;4.00;;;;;;;19.84;59.35;100451.09;5132753;27;20199;-67
2023/06/24 02:02:01;;;;;;;3.40;3.05;;;;;;;19.80;59.89;100450.38;5127623;27;20207;-66
2023/06/24 02:04:31;;;;;;;8.68;3.88;;;;;;;19.76;59.06;100454.03;5135807;27;20206;-67
2023/06/24 02:07:02;;;;;;;5.00;3.58;;;;;;;19.72;59.39;100452.47;5126002;27;20624;-66
2023/06/24 02:09:32;;;;;;;5.60;3.53;;;;;;;19.68;59.18;100456.16;5133438;27;20268;-67
2023/06/24 02:12:02;;;;;;;5.28;3.88;;;;;;;19.61;59.35;100455.50;5139013;27;20199;-67
2023/06/24 02:14:32;;;;;;;5.40;4.20;;;;;;;19.58;59.65;100468.72;5123865;27;20200;-67
2023/06/24 02:17:05;;;;;;;4.82;3.97;;;;;;;19.58;59.42;100470.47;5131188;27;20265;-68
2023/06/24 02:19:34;;;;;;;6.05;3.67;;;;;;;19.56;59.27;100467.94;5131385;27;20215;-68
2023/06/24 02:22:04;;;;;;;6.30;4.15;;;;;;;19.56;59.35;100475.78;5129550;27;20202;-69
2023/06/24 02:24:33;;;;;;;6.13;4.18;;;;;;;19.56;59.25;100473.16;5132002;27;20603;-68
2023/06/24 02:27:01;;;;;;;5.65;3.85;;;;;;;19.61;59.42;100468.59;5130376;27;20203;-68
2023/06/24 02:29:31;;;;;;;7.70;4.30;;;;;;;19.66;59.14;100466.69;5132168;27;20681;-68
2023/06/24 02:31:59;;;;;;;5.78;4.20;;;;;;;19.70;59.55;100475.22;5132854;27;20230;-67
2023/06/24 02:34:29;;;;;;;4.85;4.15;;;;;;;19.70;59.01;100469.97;5130020;27;20201;-67
2023/06/24 02:36:57;;;;;;;7.60;4.95;;;;;;;19.77;59.07;100471.41;5132283;27;20222;-68
2023/06/24 02:39:25;;;;;;;4.60;3.60;;;;;;;19.78;58.97;100471.38;5127337;27;20563;-69
2023/06/24 02:41:53;;;;;;;5.95;4.18;;;;;;;19.77;59.16;100482.75;5131763;27;20562;-68
2023/06/24 02:44:21;;;;;;;5.40;3.60;;;;;;;19.75;59.52;100479.34;5132111;27;20222;-68
2023/06/24 02:46:51;;;;;;;5.70;4.25;;;;;;;19.78;59.63;100479.22;5131024;27;20561;-69
2023/06/24 02:49:21;;;;;;;4.40;3.65;;;;;;;19.84;59.67;100477.25;5137107;27;20218;-68
2023/06/24 02:51:50;;;;;;;4.55;3.72;;;;;;;19.85;59.52;100489.44;5128935;27;20199;-67
2023/06/24 02:54:18;;;;;;;6.78;4.05;;;;;;;19.83;59.68;100491.25;5132073;27;20209;-67
2023/06/24 02:56:48;;;;;;;5.53;3.88;;;;;;;19.76;59.93;100490.66;5127470;27;20314;-68
2023/06/24 02:59:16;;;;;;;4.82;4.03;;;;;;;19.73;60.16;100490.78;5132566;27;20249;-69
2023/06/24 03:01:45;;;;;;;5.65;3.90;;;;;;;19.70;60.29;100491.78;5132371;27;20199;-69
2023/06/24 03:04:13;;;;;;;5.75;3.95;;;;;;;19.69;60.39;100500.50;5131828;27;20222;-68
2023/06/24 03:06:42;;;;;;;5.60;4.20;;;;;;;19.67;60.77;100501.50;5132328;27;20609;-67
2023/06/24 03:09:12;;;;;;;5.20;3.90;;;;;;;19.68;60.88;100501.44;5137802;27;20195;-68
2023/06/24 03:11:43;;;;;;;8.00;4.47;;;;;;;19.69;61.16;100503.13;5132201;27;20208;-68
2023/06/24 03:14:11;;;;;;;6.65;4.40;;;;;;;19.75;61.12;100510.72;5129682;27;20195;-69
2023/06/24 03:16:39;;;;;;;4.18;3.47;;;;;;;19.79;60.72;100507.06;5131476;27;20235;-69
2023/06/24 03:19:07;;;;;;;6.38;3.67;;;;;;;19.79;61.01;100501.84;5132719;27;20199;-68
2023/06/24 03:21:35;;;;;;;6.38;3.90;;;;;;;19.86;61.10;100514.66;5130687;27;20245;-69
2023/06/24 03:24:03;;;;;;;4.22;3.83;;;;;;;19.89;61.09;100511.91;5130453;27;20207;-69
2023/06/24 03:26:35;;;;;;;5.07;3.85;;;;;;;19.92;60.78;100515.25;5132432;27;20948;-68
2023/06/24 03:29:04;;;;;;;6.03;4.57;;;;;;;19.98;60.92;100516.75;5132768;27;20195;-68
2023/06/24 03:31:32;;;;;;;6.35;4.05;;;;;;;20.03;60.84;100522.63;5128386;27;20227;-68
2023/06/24 03:34:00;;;;;;;6.68;4.50;;;;;;;20.01;61.09;100514.84;5121650;27;20576;-67
2023/06/24 03:36:28;;;;;;;4.88;3.95;;;;;;;20.05;61.25;100520.78;5130719;27;20349;-67
2023/06/24 03:38:56;;;;;;;4.80;4.30;;;;;;;20.07;61.02;100521.59;5133845;27;20216;-68
2023/06/24 03:41:26;;;;;;;6.05;4.32;;;;;;;20.08;61.18;100527.66;5130024;27;20202;-68
2023/06/24 03:43:55;;;;;;;5.35;4.05;;;;;;;20.07;61.09;100525.94;5129743;27;20206;-69
2023/06/24 03:46:23;;;;;;;14.27;4.18;;;;;;;20.08;61.36;100532.91;5126821;27;20227;-66
2023/06/24 03:48:51;;;;;;;4.65;3.90;;;;;;;20.12;61.24;100530.06;5127936;27;20211;-69
2023/06/24 03:51:19;;;;;;;7.50;4.18;;;;;;;20.15;61.39;100523.88;5135239;27;20203;-68
2023/06/24 03:53:47;;;;;;;4.70;4.07;;;;;;;20.22;61.05;100530.53;5131511;27;20272;-69
2023/06/24 03:56:15;;;;;;;5.78;3.95;;;;;;;20.27;61.08;100533.78;5131047;27;20206;-66
2023/06/24 03:58:43;;;;;;;4.40;3.90;;;;;;;20.25;60.89;100539.09;5131102;27;20208;-67
2023/06/24 04:01:12;;;;;;;5.05;4.30;;;;;;;20.24;61.15;100542.63;5133660;27;20566;-67
2023/06/24 04:03:41;;;;;;;4.88;4.10;;;;;;;20.23;61.11;100546.16;5127723;27;20665;-67
2023/06/24 04:06:08;;;;;;;12.05;4.28;;;;;;;20.26;61.27;100540.81;5135531;27;20255;-68
2023/06/24 04:08:39;;;;;;;6.38;4.53;;;;;;;20.25;60.87;100539.09;5132340;27;20590;-67
2023/06/24 04:11:08;;;;;;;4.45;3.80;;;;;;;20.23;61.36;100533.06;5130716;27;20209;-68
2023/06/24 04:13:36;;;;;;;4.50;3.92;;;;;;;20.21;61.44;100540.16;5133090;27;20265;-67
2023/06/24 04:16:04;;;;;;;5.30;4.20;;;;;;;20.17;61.44;100538.56;5121213;27;20231;-68
2023/06/24 04:18:33;;;;;;;4.72;3.72;;;;;;;20.14;61.35;100535.22;5130374;27;20611;-68
2023/06/24 04:21:01;;;;;;;5.18;4.10;;;;;;;20.15;61.56;100536.94;5128804;27;20356;-67
2023/06/24 04:23:29;;;;;;;5.55;4.03;;;;;;;20.18;61.61;100540.28;5133149;27;20613;-68
2023/06/24 04:25:57;;;;;;;5.38;4.25;;;;;;;20.22;61.17;100535.78;5131631;27;20204;-68
2023/06/24 04:28:25;;;;;;;5.55;4.40;;;;;;;20.27;61.03;100541.63;5128925;27;20256;-68
2023/06/24 04:30:53;;;;;;;5.00;3.95;;;;;;;20.28;61.17;100536.31;5131926;27;20231;-68
2023/06/24 04:33:21;;;;;;;5.60;4.57;;;;;;;20.35;60.58;100534.28;5127443;27;20200;-67
2023/06/24 04:35:51;;;;;;;4.25;3.85;;;;;;;20.43;60.38;100533.94;5128945;27;20708;-69
2023/06/24 04:38:21;;;;;;;4.80;4.03;;;;;;;20.52;59.80;100538.81;5127303;27;20215;-71
2023/06/24 04:40:49;;;;;;;5.95;4.15;;;;;;;20.66;59.71;100535.59;5130834;27;20199;-72
2023/06/24 04:43:17;;;;;;;4.63;3.95;;;;;;;20.72;59.30;100530.06;5131544;27;20287;-69
2023/06/24 04:45:45;;;;;;;4.85;4.05;;;;;;;20.78;59.36;100528.94;5134450;27;20200;-68
2023/06/24 04:48:13;;;;;;;6.05;4.13;;;;;;;20.86;58.60;100532.91;5132812;27;20191;-69
2023/06/24 04:50:41;;;;;;;4.65;3.67;;;;;;;20.93;58.12;100528.22;5134169;27;20200;-68
2023/06/24 04:53:11;;;;;;;4.20;3.63;;;;;;;21.04;58.13;100535.59;5130500;27;20755;-68
2023/06/24 04:55:39;;;;;;;4.25;3.72;;;;;;;21.13;57.33;100541.22;5129257;27;20571;-68
2023/06/24 04:58:07;;;;;;;3.83;3.33;;;;;;;21.19;57.04;100538.31;5135858;27;20664;-67
2023/06/24 05:00:35;;;;;;;4.10;3.53;;;;;;;21.23;57.22;100537.25;5133566;27;20760;-68
2023/06/24 05:03:03;;;;;;;6.97;3.80;;;;;;;21.27;56.94;100537.94;5134733;27;20203;-68
2023/06/24 05:05:31;;;;;;;4.45;3.72;;;;;;;21.28;56.74;100538.78;5134957;27;20199;-68
2023/06/24 05:08:03;;;;;;;4.00;3.45;;;;;;;21.31;56.81;100533.41;5131871;27;20874;-68
2023/06/24 05:10:32;;;;;;;5.90;4.13;;;;;;;21.37;56.28;100536.63;5136871;27;20215;-67
2023/06/24 05:13:00;;;;;;;5.35;3.67;;;;;;;21.46;56.34;100548.41;5123959;27;20207;-68
2023/06/24 05:15:28;;;;;;;3.67;3.25;;;;;;;21.51;56.11;100551.69;5127767;27;20575;-68
2023/06/24 05:17:56;;;;;;;3.75;3.42;;;;;;;21.55;55.83;100557.63;5133641;27;20237;-68
2023/06/24 05:20:25;;;;;;;4.07;3.17;;;;;;;;;;5129944;27;20229;-69
2023/06/24 05:22:53;;;;;;;5.03;3.40;;;;;;;21.58;55.88;100566.19;5120154;27;20588;-67
2023/06/24 05:25:22;;;;;;;3.60;3.30;;;;;;;21.61;55.77;100565.19;5133543;27;20207;-65
2023/06/24 05:27:51;;;;;;;5.13;3.38;;;;;;;21.71;55.82;100563.81;5133781;27;20207;-66
2023/06/24 05:30:19;;;;;;;5.55;3.67;;;;;;;21.85;55.39;100560.50;5132183;27;20250;-66
2023/06/24 05:32:47;;;;;;;5.85;3.85;;;;;;;21.98;55.36;100566.81;5132073;27;20663;-66
2023/06/24 05:35:16;;;;;;;6.05;3.35;;;;;;;22.10;54.97;100566.22;5134086;27;20200;-66
2023/06/24 05:37:44;;;;;;;6.07;3.40;;;;;;;22.18;54.50;100577.19;5133410;27;20218;-67
2023/06/24 05:40:13;;;;;;;4.85;3.40;;;;;;;22.19;54.52;100585.91;5136431;27;20294;-67
2023/06/24 05:42:41;;;;;;;5.18;3.15;;;;;;;22.11;54.36;100583.66;5131645;27;20238;-65
2023/06/24 05:45:11;;;;;;;4.60;3.88;;;;;;;22.05;54.82;100581.31;5131804;27;20203;-66
2023/06/24 05:47:39;;;;;;;4.45;3.88;;;;;;;22.04;55.18;100587.50;5130707;27;20203;-67
2023/06/24 05:50:07;;;;;;;4.50;4.10;;;;;;;22.10;55.10;100586.38;5133104;27;20294;-68
2023/06/24 05:52:35;;;;;;;5.28;3.67;;;;;;;22.23;54.99;100582.19;5132556;27;20244;-67
2023/06/24 05:55:04;;;;;;;24.88;7.35;;;;;;;22.38;54.72;100586.66;5130137;27;20580;-68
2023/06/24 05:57:32;;;;;;;5.90;3.47;;;;;;;22.51;53.74;100588.66;5131861;27;20420;-67
2023/06/24 06:00:00;;;;;;;10.68;4.93;;;;;;;22.59;53.85;100587.31;5130516;27;20209;-68
2023/06/24 06:02:29;;;;;;;10.55;4.53;;;;;;;22.75;53.67;100594.38;5129810;27;20256;-61
2023/06/24 06:04:57;;;;;;;5.82;4.32;;;;;;;22.89;53.36;100597.13;5133197;27;20207;-67
2023/06/24 06:07:25;;;;;;;8.20;3.88;;;;;;;23.06;53.02;100593.63;5129990;27;20199;-67
2023/06/24 06:09:53;;;;;;;6.13;4.25;;;;;;;23.27;52.18;100596.81;5129685;27;20646;-68
2023/06/24 06:12:21;;;;;;;6.90;4.22;;;;;;;23.31;51.74;100599.22;5130318;27;20256;-68
2023/06/24 06:14:49;;;;;;;4.38;3.85;;;;;;;23.30;51.52;100591.41;5129710;27;21225;-67
2023/06/24 06:17:17;;;;;;;5.38;3.90;;;;;;;23.35;51.58;100598.13;5134844;27;20217;-67
2023/06/24 06:19:47;;;;;;;5.75;3.80;;;;;;;23.36;51.39;100591.91;5128354;27;20641;-67
2023/06/24 06:22:19;;;;;;;4.60;3.85;;;;;;;23.37;51.49;100592.75;5136061;27;20298;-62
2023/06/24 06:24:47;;;;;;;5.25;3.83;;;;;;;23.45;51.42;100595.78;5131146;27;20211;-65
2023/06/24 06:27:15;;;;;;;4.80;3.75;;;;;;;23.58;51.30;100588.91;5127997;27;21649;-63
2023/06/24 06:29:43;;;;;;;4.07;3.65;;;;;;;23.77;50.88;100588.75;5131557;27;20196;-64
2023/06/24 06:32:11;;;;;;;4.90;3.58;;;;;;;23.89;50.72;100592.44;5128995;27;20249;-64
2023/06/24 06:34:39;;;;;;;5.45;3.78;;;;;;;24.11;50.43;100595.50;5130325;27;20203;-64
2023/06/24 06:37:08;;;;;;;4.60;3.65;;;;;;;24.43;49.71;100590.13;5123724;27;20252;-69
2023/06/24 06:39:36;;;;;;;4.18;3.55;;;;;;;24.80;48.54;100593.16;5133056;27;20227;-64
2023/06/24 06:42:04;;;;;;;5.32;3.83;;;;;;;25.07;46.44;100590.56;5130979;27;20719;-69
2023/06/24 06:44:33;;;;;;;5.03;3.58;;;;;;;25.03;46.81;100589.91;5125286;27;20514;-61
2023/06/24 06:47:01;;;;;;;5.03;4.03;;;;;;;25.16;46.68;100594.47;5122789;27;20206;-59
2023/06/24 06:49:29;;;;;;;3.88;3.55;;;;;;;25.30;46.31;100597.06;5130599;27;20541;-60
2023/06/24 06:51:56;;;;;;;5.22;3.75;;;;;;;25.39;46.50;100595.63;5127585;27;20705;-60
2023/06/24 06:54:26;;;;;;;3.65;3.08;;;;;;;25.39;46.22;100603.53;5134997;27;20722;-62
2023/06/24 06:56:55;;;;;;;4.80;3.90;;;;;;;25.31;45.57;100601.38;5129064;27;20293;-60
2023/06/24 06:59:23;;;;;;;5.35;3.42;;;;;;;25.15;45.93;100603.28;5134910;27;20711;-61
2023/06/24 07:01:51;;;;;;;4.35;3.20;;;;;;;25.12;46.65;100598.25;5122466;27;20278;-62
2023/06/24 07:04:19;;;;;;;5.20;3.80;;;;;;;25.23;46.48;100601.03;5125691;27;20238;-61
2023/06/24 07:06:47;;;;;;;5.43;4.25;;;;;;;25.42;45.58;100601.53;5120065;27;20242;-61
2023/06/24 07:09:15;;;;;;;4.10;3.60;;;;;;;25.43;45.02;100597.94;5129402;27;20203;-60
2023/06/24 07:11:45;;;;;;;3.78;3.40;;;;;;;25.62;44.60;100602.03;5128389;27;20207;-60
2023/06/24 07:14:13;;;;;;;4.53;3.70;;;;;;;26.02;44.50;100601.09;5130206;27;20207;-60
2023/06/24 07:16:41;;;;;;;4.75;3.80;;;;;;;26.62;42.67;100593.53;5135812;27;20260;-60
2023/06/24 07:19:09;;;;;;;4.25;3.17;;;;;;;27.31;41.48;100592.16;5131564;27;20586;-61
2023/06/24 07:21:37;;;;;;;4.10;3.30;;;;;;;28.07;39.89;100590.09;5126953;27;20215;-67
2023/06/24 07:24:05;;;;;;;4.65;3.45;;;;;;;28.86;38.11;100577.75;5138402;27;20203;-67
2023/06/24 07:26:33;;;;;;;3.85;3.42;;;;;;;29.65;36.49;100570.47;5133691;27;20615;-61
2023/06/24 07:29:06;;;;;;;3.28;2.97;;;;;;;30.27;35.20;100566.16;5130759;27;20256;-64
2023/06/24 07:31:37;;;;;;;3.75;3.20;;;;;;;30.56;34.98;100566.28;5133448;27;20226;-67
2023/06/24 07:34:06;;;;;;;3.85;3.08;;;;;;;31.04;34.26;100565.59;5134689;27;20238;-66
2023/06/24 07:36:34;;;;;;;4.35;3.50;;;;;;;31.32;33.44;100569.34;5128573;27;20203;-66
2023/06/24 07:39:02;;;;;;;4.20;3.58;;;;;;;31.00;32.54;100569.53;5132492;27;20705;-68
2023/06/24 07:41:30;;;;;;;9.23;5.55;;;;;;;30.45;33.74;100579.66;5131250;27;20297;-66
2023/06/24 07:43:58;;;;;;;3.92;3.47;;;;;;;30.02;34.33;100578.03;5131198;27;20643;-67
2023/06/24 07:46:28;;;;;;;16.77;8.57;;;;;;;29.61;35.66;100579.69;5129420;27;20199;-67
2023/06/24 07:48:56;;;;;;;24.45;9.65;;;;;;;29.27;35.43;100582.44;5134243;27;20276;-65
2023/06/24 07:51:24;;;;;;;40.97;16.48;;;;;;;28.74;35.68;100582.22;5135110;27;20203;-65
2023/06/24 07:53:52;;;;;;;18.42;8.13;;;;;;;28.27;36.33;100586.75;5132320;27;20210;-64
2023/06/24 07:56:20;;;;;;;27.65;10.90;;;;;;;27.96;36.44;100582.97;5128237;27;20801;-64
2023/06/24 07:58:48;;;;;;;13.13;6.32;;;;;;;27.59;36.57;100590.13;5131529;27;20246;-64
2023/06/24 08:01:16;;;;;;;16.20;7.75;;;;;;;27.07;37.37;100601.84;5130222;27;20290;-64
2023/06/24 08:03:45;;;;;;;21.90;8.80;;;;;;;26.63;38.91;100600.56;5126610;27;20964;-64
2023/06/24 08:06:13;;;;;;;13.23;7.38;;;;;;;26.37;39.13;100594.41;5127778;27;20199;-65
2023/06/24 08:08:41;;;;;;;4.10;2.97;;;;;;;26.06;39.75;100603.53;5126165;27;20195;-65
2023/06/24 08:11:09;;;;;;;8.32;3.60;;;;;;;25.94;40.01;100608.69;5126355;27;20222;-65
2023/06/24 08:13:37;;;;;;;5.80;3.88;;;;;;;25.75;38.19;100613.50;5124835;27;20218;-66
2023/06/24 08:16:05;;;;;;;4.35;2.67;;;;;;;25.52;38.72;100613.19;5124735;27;20203;-66
2023/06/24 08:18:33;;;;;;;3.22;2.58;;;;;;;25.47;38.13;100615.28;5125002;27;20196;-65
2023/06/24 08:21:02;;;;;;;5.32;3.50;;;;;;;25.48;38.58;100609.06;5122951;27;20213;-66
2023/06/24 08:23:30;;;;;;;4.78;2.90;;;;;;;25.60;38.86;100611.84;5136099;27;20294;-67
2023/06/24 08:25:58;;;;;;;6.50;2.80;;;;;;;25.81;38.74;100617.53;5135176;27;20207;-61
2023/06/24 08:28:43;;;;;;;3.10;2.75;;;;;;;25.94;38.29;100624.53;5134994;27;20204;-61
2023/06/24 08:31:11;;;;;;;5.00;2.72;;;;;;;25.95;37.28;100610.38;5137749;27;20226;-60
2023/06/24 08:33:39;;;;;;;3.47;2.72;;;;;;;26.06;37.27;100616.75;5133719;27;20198;-62
2023/06/24 08:36:08;;;;;;;2.47;2.28;;;;;;;26.06;36.72;100620.22;5132098;27;20217;-60
2023/06/24 08:38:36;;;;;;;4.60;2.70;;;;;;;25.99;35.69;100611.03;5130487;27;20204;-60
2023/06/24 08:41:04;;;;;;;2.75;2.55;;;;;;;25.95;36.73;100614.81;5125819;27;20203;-61
2023/06/24 08:43:32;;;;;;;3.15;2.85;;;;;;;25.92;35.95;100613.25;5128993;27;20218;-59
2023/06/24 08:46:01;;;;;;;4.00;2.63;;;;;;;25.79;36.03;100617.66;5135283;27;20199;-61
2023/06/24 08:48:30;;;;;;;2.65;2.42;;;;;;;25.78;36.36;100618.56;5135308;27;20199;-61
2023/06/24 08:51:02;;;;;;;2.65;2.45;;;;;;;25.71;36.27;100627.84;5135009;27;20199;-59
2023/06/24 08:53:32;;;;;;;3.72;2.78;;;;;;;25.73;36.40;100621.50;5135216;27;20199;-61
2023/06/24 08:56:01;;;;;;;3.17;2.88;;;;;;;25.73;36.66;100631.22;5135010;27;20211;-60
2023/06/24 08:58:29;;;;;;;2.80;2.60;;;;;;;25.65;35.86;100622.94;5134133;27;20199;-61
2023/06/24 09:00:57;;;;;;;4.97;3.05;;;;;;;25.57;36.26;100625.25;5130201;27;20554;-61
2023/06/24 09:03:25;;;;;;;3.63;2.97;;;;;;;25.54;36.27;100631.56;5133241;27;20201;-60
2023/06/24 09:05:53;;;;;;;2.90;2.60;;;;;;;25.52;35.54;100628.19;5133857;27;20304;-59
2023/06/24 09:08:22;;;;;;;6.80;2.90;;;;;;;25.30;36.14;100634.00;5134832;27;20199;-61
2023/06/24 09:10:55;;;;;;;2.80;2.60;;;;;;;25.28;36.20;100636.72;5134548;27;20196;-60
2023/06/24 09:13:34;;;;;;;2.60;2.40;;;;;;;25.30;36.17;100639.28;5133150;27;20203;-60
2023/06/24 09:16:13;;;;;;;3.08;2.50;;;;;;;25.31;35.33;100643.59;5134720;27;20252;-60
2023/06/24 09:18:41;;;;;;;3.30;2.80;;;;;;;25.21;36.15;100637.19;5138799;27;20203;-60
2023/06/24 09:21:11;;;;;;;2.72;2.30;;;;;;;25.21;36.59;100635.41;5134680;27;20251;-66
2023/06/24 09:23:40;;;;;;;3.67;2.72;;;;;;;25.16;36.53;100639.28;5130627;27;20203;-67
2023/06/24 09:26:15;;;;;;;3.53;2.58;;;;;;;25.05;37.43;100643.41;5133353;27;20203;-68
2023/06/24 09:28:48;;;;;;;3.10;2.80;;;;;;;24.96;37.37;100645.75;5127614;27;20202;-67
2023/06/24 09:31:17;;;;;;;3.33;2.95;;;;;;;24.99;36.95;100633.22;5131511;27;20276;-67
2023/06/24 09:33:49;;;;;;;3.97;2.83;;;;;;;24.96;37.20;100633.41;5138126;27;20198;-66
2023/06/24 09:36:18;;;;;;;4.00;3.00;;;;;;;25.01;37.38;100630.53;5129835;27;20636;-59
2023/06/24 09:38:49;;;;;;;4.68;3.00;;;;;;;25.01;38.19;100634.00;5133044;27;20238;-61
2023/06/24 09:41:19;;;;;;;4.68;2.90;;;;;;;25.04;37.05;100633.81;5132874;27;20211;-60
2023/06/24 09:43:47;;;;;;;3.85;2.92;;;;;;;25.02;37.07;100635.69;5133917;27;20211;-60
2023/06/24 09:46:16;;;;;;;3.05;2.75;;;;;;;25.01;37.21;100633.16;5134141;27;20218;-61
2023/06/24 09:48:44;;;;;;;5.07;3.10;;;;;;;25.04;37.88;100641.72;5134110;27;20207;-59
2023/06/24 09:51:14;;;;;;;3.13;2.83;;;;;;;25.11;37.72;100639.56;5130479;27;20195;-60
2023/06/24 09:53:43;;;;;;;3.65;2.90;;;;;;;25.16;37.47;100636.66;5134315;27;20227;-61
2023/06/24 09:56:14;;;;;;;3.45;2.70;;;;;;;25.16;35.90;100636.66;5131552;27;20272;-59
2023/06/24 09:58:45;;;;;;;2.88;2.60;;;;;;;25.10;35.49;100642.28;5133600;27;20562;-61
2023/06/24 10:01:16;;;;;;;3.00;2.70;;;;;;;24.98;35.62;100636.81;5133810;27;20628;-60
2023/06/24 10:03:44;;;;;;;5.45;3.00;;;;;;;24.93;36.34;100635.41;5131501;27;20644;-60
2023/06/24 10:06:13;;;;;;;4.05;2.80;;;;;;;24.90;36.36;100632.97;5133395;27;20234;-60
2023/06/24 10:08:41;;;;;;;4.05;3.60;;;;;;;24.86;37.13;100639.38;5132519;27;20248;-63
2023/06/24 10:11:09;;;;;;;3.22;2.92;;;;;;;24.83;37.48;100640.41;5128408;27;20228;-60
2023/06/24 10:13:37;;;;;;;3.65;3.08;;;;;;;24.78;37.63;100635.44;5130543;27;20195;-60
2023/06/24 10:16:07;;;;;;;3.67;2.90;;;;;;;24.77;37.26;100636.34;5133252;27;20203;-60
2023/06/24 10:18:41;;;;;;;2.95;2.72;;;;;;;24.69;37.80;100633.34;5132391;27;20597;-63
2023/06/24 10:21:10;;;;;;;3.05;2.75;;;;;;;24.68;38.56;100628.19;5133080;27;20219;-66
2023/06/24 10:23:42;;;;;;;3.65;3.33;;;;;;;24.74;38.44;100635.69;5131545;27;20211;-66
2023/06/24 10:26:22;;;;;;;3.38;3.08;;;;;;;24.77;38.82;100631.06;5127651;27;20603;-66
2023/06/24 10:29:10;;;;;;;4.28;3.40;;;;;;;24.79;38.88;100634.47;5130808;27;20214;-66
2023/06/24 10:31:55;;;;;;;5.65;3.45;;;;;;;24.81;38.14;100647.56;5130803;27;20333;-66
2023/06/24 10:34:29;;;;;;;3.75;3.25;;;;;;;24.80;37.80;100637.97;5132973;27;20234;-66
2023/06/24 10:37:00;;;;;;;3.20;2.90;;;;;;;24.80;38.00;100630.06;5130641;27;20648;-62
2023/06/24 10:39:39;;;;;;;3.28;2.97;;;;;;;24.80;38.32;100630.06;5130344;27;20536;-60
2023/06/24 10:42:52;;;;;;;3.65;2.70;;;;;;;24.89;38.42;100634.78;5130331;27;20210;-59
2023/06/24 10:45:21;;;;;;;3.78;2.83;;;;;;;25.04;38.29;100631.19;5122991;27;20279;-60
2023/06/24 10:47:52;;;;;;;3.38;2.90;;;;;;;25.13;37.94;100627.13;5132869;27;20662;-59
2023/06/24 10:50:23;;;;;;;4.10;2.95;;;;;;;25.26;37.38;100629.88;5132829;27;20199;-62
2023/06/24 10:52:55;;;;;;;5.05;3.42;;;;;;;25.35;36.46;100625.78;5132638;27;20207;-60
2023/06/24 10:55:25;;;;;;;4.72;3.05;;;;;;;25.40;36.06;100629.81;5134986;27;20553;-61
2023/06/24 10:57:53;;;;;;;4.32;3.05;;;;;;;25.32;35.91;100632.09;5129731;27;20202;-61
2023/06/24 11:00:22;;;;;;;3.92;3.30;;;;;;;25.09;36.39;100630.88;5130385;27;20265;-60
2023/06/24 11:02:52;;;;;;;3.53;2.90;;;;;;;24.82;36.90;100629.03;5125572;27;20725;-59
2023/06/24 11:05:20;;;;;;;3.42;2.80;;;;;;;24.64;37.66;100627.50;5132324;27;20252;-60
2023/06/24 11:07:48;;;;;;;6.05;3.00;;;;;;;24.53;38.38;100633.44;5132222;27;20195;-60
2023/06/24 11:10:16;;;;;;;4.82;3.17;;;;;;;24.43;39.32;100634.91;5133244;27;20251;-61
2023/06/24 11:12:46;;;;;;;4.97;3.05;;;;;;;24.26;39.67;100637.66;5137375;27;20212;-60
2023/06/24 11:15:14;;;;;;;3.35;3.05;;;;;;;24.13;39.25;100639.34;5132517;27;20222;-59
2023/06/24 11:17:43;;;;;;;3.75;2.83;;;;;;;24.02;39.35;100648.72;5131787;27;20638;-60
2023/06/24 11:20:14;;;;;;;4.57;2.75;;;;;;;23.93;39.58;100641.31;5129984;27;20214;-60
2023/06/24 11:22:44;;;;;;;5.20;2.88;;;;;;;23.79;39.74;100647.41;5132189;27;20210;-59
2023/06/24 11:25:19;;;;;;;4.45;3.10;;;;;;;23.68;40.39;100647.16;5131470;27;20199;-61
2023/06/24 11:27:48;;;;;;;3.03;2.70;;;;;;;23.62;40.68;100645.69;5129256;27;20602;-62
2023/06/24 11:30:17;;;;;;;2.88;2.67;;;;;;;23.58;40.57;100652.06;5131736;27;20362;-60
2023/06/24 11:32:47;;;;;;;3.78;3.42;;;;;;;23.52;40.70;100652.38;5130907;27;20222;-60
2023/06/24 11:35:17;;;;;;;5.32;2.75;;;;;;;23.46;41.25;100658.00;5132103;27;20210;-61